createdAt,value
2024-01-20T00:00:16.080Z,3.33
2024-01-20T00:02:58.928Z,3.31
2024-01-20T00:05:29.525Z,3.30
2024-01-20T00:08:16.977Z,3.27
2024-01-20T00:10:47.026Z,3.28
2024-01-20T00:13:14.400Z,3.26
2024-01-20T00:15:41.019Z,3.25
2024-01-20T00:18:08.463Z,3.24
2024-01-20T00:20:35.818Z,3.23
2024-01-20T00:23:07.023Z,3.22
2024-01-20T00:25:36.094Z,3.18
2024-01-20T00:28:05.252Z,3.19
2024-01-20T00:30:31.920Z,3.19
2024-01-20T00:32:59.435Z,3.20
2024-01-20T00:35:26.097Z,3.22
2024-01-20T00:37:52.826Z,3.22
2024-01-20T00:40:19.503Z,3.19
2024-01-20T00:42:46.091Z,3.17
2024-01-20T00:45:12.898Z,3.17
2024-01-20T00:47:40.404Z,3.19
2024-01-20T00:50:08.289Z,3.21
2024-01-20T00:52:35.523Z,3.22
2024-01-20T00:55:02.114Z,3.23
2024-01-20T00:57:28.928Z,3.22
2024-01-20T00:59:56.681Z,3.23
2024-01-20T01:02:25.871Z,3.22
2024-01-20T01:04:52.776Z,3.19
2024-01-20T01:07:19.470Z,3.18
2024-01-20T01:09:46.064Z,3.17
2024-01-20T01:12:13.153Z,3.18
2024-01-20T01:14:40.010Z,3.19
2024-01-20T01:17:07.378Z,3.19
2024-01-20T01:19:34.557Z,3.20
2024-01-20T01:22:01.220Z,3.19
2024-01-20T01:24:27.816Z,3.18
2024-01-20T01:26:54.456Z,3.19
2024-01-20T01:29:21.189Z,3.18
2024-01-20T01:31:48.004Z,3.20
2024-01-20T01:34:14.950Z,3.22
2024-01-20T01:36:41.894Z,3.24
2024-01-20T01:39:08.474Z,3.26
2024-01-20T01:41:35.358Z,3.25
2024-01-20T01:44:04.162Z,3.24
2024-01-20T01:46:31.504Z,3.22
2024-01-20T01:48:58.631Z,3.19
2024-01-20T01:51:25.338Z,3.17
2024-01-20T01:53:52.757Z,3.15
2024-01-20T01:56:21.191Z,3.16
2024-01-20T01:58:48.112Z,3.15
2024-01-20T02:01:15.256Z,3.14
2024-01-20T02:03:42.087Z,3.15
2024-01-20T02:06:08.966Z,3.16
2024-01-20T02:08:36.896Z,3.16
2024-01-20T02:11:03.920Z,3.16
2024-01-20T02:13:31.312Z,3.16
2024-01-20T02:15:58.506Z,3.17
2024-01-20T02:18:25.349Z,3.16
2024-01-20T02:20:52.058Z,3.14
2024-01-20T02:23:18.809Z,3.14
2024-01-20T02:25:48.890Z,3.13
2024-01-20T02:28:18.425Z,3.12
2024-01-20T02:30:52.680Z,3.10
2024-01-20T02:33:27.312Z,3.10
2024-01-20T02:36:09.840Z,3.11
2024-01-20T02:38:46.644Z,3.14
2024-01-20T02:41:22.563Z,3.14
2024-01-20T02:44:03.546Z,3.13
2024-01-20T02:46:40.254Z,3.12
2024-01-20T02:49:21.638Z,3.12
2024-01-20T02:51:54.018Z,3.13
2024-01-20T02:54:25.274Z,3.13
2024-01-20T02:56:57.785Z,3.12
2024-01-20T03:02:48.824Z,3.12
2024-01-20T03:05:15.526Z,3.11
2024-01-20T03:07:42.164Z,3.10
2024-01-20T03:10:09.230Z,3.09
2024-01-20T03:12:36.079Z,3.06
2024-01-20T03:15:03.046Z,3.08
2024-01-20T03:17:30.405Z,3.08
2024-01-20T03:19:57.293Z,3.08
2024-01-20T03:22:23.960Z,3.07
2024-01-20T03:24:50.621Z,3.08
2024-01-20T03:27:20.282Z,3.09
2024-01-20T03:29:46.992Z,3.09
2024-01-20T03:32:13.813Z,3.10
2024-01-20T03:34:40.582Z,3.07
2024-01-20T03:37:07.404Z,3.03
2024-01-20T03:39:34.078Z,3.04
2024-01-20T03:42:03.142Z,3.03
2024-01-20T03:44:30.391Z,3.02
2024-01-20T03:46:57.016Z,3.02
2024-01-20T03:49:23.710Z,3.02
2024-01-20T03:51:50.757Z,3.01
2024-01-20T03:54:17.454Z,3.02
2024-01-20T03:56:47.051Z,3.02
2024-01-20T03:59:13.770Z,3.02
2024-01-20T04:01:40.721Z,2.99
2024-01-20T04:04:07.652Z,2.96
2024-01-20T04:06:34.933Z,2.95
2024-01-20T04:09:01.604Z,2.93
2024-01-20T04:11:28.271Z,2.94
2024-01-20T04:13:54.882Z,2.92
2024-01-20T04:16:21.715Z,2.91
2024-01-20T04:18:48.532Z,2.93
2024-01-20T04:21:15.318Z,2.90
2024-01-20T04:23:41.955Z,2.92
2024-01-20T04:26:08.703Z,2.93
2024-01-20T04:28:35.334Z,2.93
2024-01-20T04:31:02.023Z,2.90
2024-01-20T04:33:28.716Z,2.87
2024-01-20T04:35:55.418Z,2.86
2024-01-20T04:38:22.033Z,2.84
2024-01-20T04:40:48.989Z,2.84
2024-01-20T04:43:15.722Z,2.85
2024-01-20T04:45:42.593Z,2.84
2024-01-20T04:48:09.595Z,2.85
2024-01-20T04:50:36.559Z,2.84
2024-01-20T04:53:03.952Z,2.83
2024-01-20T04:55:30.580Z,2.82
2024-01-20T04:57:57.297Z,2.85
2024-01-20T05:00:24.760Z,2.84
2024-01-20T05:02:51.666Z,2.87
2024-01-20T05:05:18.352Z,2.87
2024-01-20T05:07:46.121Z,2.89
2024-01-20T05:10:12.794Z,2.88
2024-01-20T05:12:39.527Z,2.91
2024-01-20T05:15:12.024Z,2.94
2024-01-20T05:17:38.911Z,2.95
2024-01-20T05:20:06.767Z,2.93
2024-01-20T05:22:33.827Z,2.91
2024-01-20T05:25:00.836Z,2.90
2024-01-20T05:27:27.751Z,2.90
2024-01-20T05:29:54.445Z,2.91
2024-01-20T05:32:21.454Z,2.92
2024-01-20T05:34:48.191Z,2.93
2024-01-20T05:37:15.047Z,2.96
2024-01-20T05:39:41.655Z,2.99
2024-01-20T05:42:08.325Z,3.01
2024-01-20T05:44:35.201Z,3.04
2024-01-20T05:47:01.821Z,3.03
2024-01-20T05:49:29.759Z,3.03
2024-01-20T05:51:56.444Z,3.02
2024-01-20T05:54:25.593Z,3.02
2024-01-20T05:56:52.303Z,3.04
2024-01-20T05:59:18.944Z,3.02
2024-01-20T06:01:51.402Z,3.04
2024-01-20T06:04:18.941Z,3.03
2024-01-20T06:06:47.586Z,3.04
2024-01-20T06:09:14.939Z,3.05
2024-01-20T06:11:42.255Z,3.04
2024-01-20T06:14:09.002Z,3.02
2024-01-20T06:16:39.785Z,3.02
2024-01-20T06:19:07.525Z,3.05
2024-01-20T06:21:35.192Z,3.06
2024-01-20T06:24:02.051Z,3.05
2024-01-20T06:26:29.973Z,3.01
2024-01-20T06:28:56.686Z,3.00
2024-01-20T06:31:29.649Z,2.98
2024-01-20T06:33:56.816Z,2.97
2024-01-20T06:36:26.413Z,2.97
2024-01-20T06:38:53.419Z,2.96
2024-01-20T06:41:20.323Z,2.97
2024-01-20T06:43:47.018Z,2.97
2024-01-20T06:46:13.722Z,2.97
2024-01-20T06:48:40.397Z,2.95
2024-01-20T06:51:07.637Z,2.94
2024-01-20T06:53:34.889Z,2.95
2024-01-20T06:56:01.618Z,2.95
2024-01-20T06:58:28.208Z,2.95
2024-01-20T07:00:54.804Z,2.94
2024-01-20T07:03:22.782Z,2.94
2024-01-20T07:05:49.646Z,2.92
2024-01-20T07:08:16.288Z,2.91
2024-01-20T07:10:42.895Z,2.91
2024-01-20T07:13:10.489Z,2.91
2024-01-20T07:15:37.187Z,2.88
2024-01-20T07:18:08.226Z,2.88
2024-01-20T07:20:35.211Z,2.88
2024-01-20T07:23:01.930Z,2.88
2024-01-20T07:25:28.617Z,2.91
2024-01-20T07:27:55.943Z,2.91
2024-01-20T07:30:22.850Z,2.90
2024-01-20T07:32:49.657Z,2.88
2024-01-20T07:35:16.378Z,2.90
2024-01-20T07:37:43.370Z,2.90
2024-01-20T07:40:11.041Z,2.92
2024-01-20T07:42:37.698Z,2.91
2024-01-20T07:45:05.150Z,2.93
2024-01-20T07:47:31.929Z,2.94
2024-01-20T07:49:58.589Z,2.95
2024-01-20T07:52:25.240Z,2.95
2024-01-20T07:54:51.876Z,2.96
2024-01-20T07:57:18.530Z,2.95
2024-01-20T07:59:45.353Z,2.94
2024-01-20T08:02:11.973Z,2.93
2024-01-20T08:04:38.692Z,2.96
2024-01-20T08:07:05.386Z,2.97
2024-01-20T08:09:32.173Z,3.00
2024-01-20T08:11:58.898Z,3.04
2024-01-20T08:14:25.487Z,3.07
2024-01-20T08:16:52.155Z,3.13
2024-01-20T08:19:18.934Z,3.19
2024-01-20T08:21:45.786Z,3.23
2024-01-20T08:24:12.805Z,3.28
2024-01-20T08:26:39.456Z,3.32
2024-01-20T08:29:07.382Z,3.37
2024-01-20T08:31:34.183Z,3.42
2024-01-20T08:34:01.394Z,3.46
2024-01-20T08:36:28.209Z,3.49
2024-01-20T08:38:54.903Z,3.51
2024-01-20T08:41:21.593Z,3.55
2024-01-20T08:43:48.618Z,3.60
2024-01-20T08:46:15.436Z,3.64
2024-01-20T08:48:42.174Z,3.68
2024-01-20T08:51:09.527Z,3.72
2024-01-20T08:53:36.413Z,3.74
2024-01-20T08:56:05.234Z,3.75
2024-01-20T08:58:31.989Z,3.77
2024-01-20T09:00:58.873Z,3.78
2024-01-20T09:03:26.521Z,3.82
2024-01-20T09:05:53.527Z,3.82
2024-01-20T09:08:20.246Z,3.84
2024-01-20T09:10:46.930Z,3.86
2024-01-20T09:13:14.136Z,3.87
2024-01-20T09:15:43.052Z,3.90
2024-01-20T09:18:10.863Z,3.91
2024-01-20T09:20:37.982Z,3.92
2024-01-20T09:23:05.322Z,3.96
2024-01-20T09:25:32.057Z,3.96
2024-01-20T09:27:58.803Z,4.01
2024-01-20T09:30:25.423Z,4.04
2024-01-20T09:32:52.070Z,4.04
2024-01-20T09:35:18.881Z,4.08
2024-01-20T09:37:46.352Z,4.08
2024-01-20T09:40:13.244Z,4.11
2024-01-20T09:42:40.441Z,4.13
2024-01-20T09:45:08.213Z,4.17
2024-01-20T09:47:36.323Z,4.19
2024-01-20T09:50:05.389Z,4.19
2024-01-20T09:52:45.436Z,4.21
2024-01-20T09:55:22.240Z,4.23
2024-01-20T09:57:51.006Z,4.28
2024-01-20T10:00:21.062Z,4.31
2024-01-20T10:02:48.022Z,4.34
2024-01-20T10:05:16.067Z,4.36
2024-01-20T10:07:44.103Z,4.39
2024-01-20T10:10:22.864Z,4.42
2024-01-20T10:12:54.852Z,4.45
2024-01-20T10:15:33.534Z,4.46
2024-01-20T10:18:07.360Z,4.47
2024-01-20T10:20:37.326Z,4.47
2024-01-20T10:23:06.587Z,4.49
2024-01-20T10:25:35.222Z,4.49
2024-01-20T10:28:02.138Z,4.49
2024-01-20T10:30:30.407Z,4.49
2024-01-20T10:33:08.727Z,4.53
2024-01-20T10:35:37.541Z,4.52
2024-01-20T10:38:10.349Z,4.53
2024-01-20T10:40:40.692Z,4.53
2024-01-20T10:43:14.960Z,4.54
2024-01-20T10:45:59.827Z,4.55
2024-01-20T10:48:28.508Z,4.57
2024-01-20T10:51:00.714Z,4.60
2024-01-20T10:53:27.950Z,4.62
2024-01-20T10:55:55.584Z,4.62
2024-01-20T10:58:38.516Z,4.65
2024-01-20T11:01:06.408Z,4.68
2024-01-20T11:03:34.177Z,4.69
2024-01-20T11:06:01.000Z,4.69
2024-01-20T11:08:27.733Z,4.69
2024-01-20T11:10:55.371Z,4.70
2024-01-20T11:13:27.313Z,4.69
2024-01-20T11:15:56.091Z,4.66
2024-01-20T11:18:24.064Z,4.63
2024-01-20T11:20:58.686Z,4.61
2024-01-20T11:23:29.201Z,4.59
2024-01-20T11:25:56.630Z,4.59
2024-01-20T11:28:25.844Z,4.61
2024-01-20T11:30:52.626Z,4.64
2024-01-20T11:33:19.657Z,4.65
2024-01-20T11:35:46.418Z,4.65
2024-01-20T11:38:16.181Z,4.67
2024-01-20T11:40:43.980Z,4.69
2024-01-20T11:43:12.967Z,4.71
2024-01-20T11:45:40.563Z,4.72
2024-01-20T11:48:10.430Z,4.75
2024-01-20T11:50:39.539Z,4.77
2024-01-20T11:53:06.244Z,4.81
2024-01-20T11:55:32.973Z,4.82
2024-01-20T11:58:00.325Z,4.83
2024-01-20T12:00:27.086Z,4.84
2024-01-20T12:02:54.048Z,4.90
2024-01-20T12:05:21.579Z,4.92
2024-01-20T12:07:48.397Z,4.93
2024-01-20T12:10:17.044Z,4.94
2024-01-20T12:12:45.060Z,4.92
2024-01-20T12:15:12.117Z,4.92
2024-01-20T12:17:38.831Z,4.91
2024-01-20T12:20:06.245Z,4.89
2024-01-20T12:22:33.407Z,4.92
2024-01-20T12:25:00.732Z,4.92
2024-01-20T12:27:27.989Z,4.92
2024-01-20T12:29:55.758Z,4.92
2024-01-20T12:32:22.539Z,4.91
2024-01-20T12:34:49.427Z,4.92
2024-01-20T12:37:16.000Z,4.95
2024-01-20T12:39:43.050Z,4.96
2024-01-20T12:42:10.432Z,4.95
2024-01-20T12:44:37.030Z,4.93
2024-01-20T12:47:04.188Z,4.92
2024-01-20T12:49:31.936Z,4.90
2024-01-20T12:51:59.121Z,4.87
2024-01-20T12:54:26.023Z,4.86
2024-01-20T12:56:52.693Z,4.86
2024-01-20T12:59:19.337Z,4.88
2024-01-20T13:01:45.968Z,4.89
2024-01-20T13:04:13.091Z,4.90
2024-01-20T13:06:39.850Z,4.92
2024-01-20T13:09:10.082Z,4.93
2024-01-20T13:11:37.695Z,4.97
2024-01-20T13:14:04.332Z,5.02
2024-01-20T13:16:34.169Z,5.05
2024-01-20T13:19:01.797Z,5.07
2024-01-20T13:21:28.678Z,5.08
2024-01-20T13:23:55.378Z,5.09
2024-01-20T13:26:22.673Z,5.11
2024-01-20T13:28:49.776Z,5.14
2024-01-20T13:31:17.694Z,5.18
2024-01-20T13:33:45.466Z,5.21
2024-01-20T13:36:12.116Z,5.24
2024-01-20T13:38:39.141Z,5.27
2024-01-20T13:41:06.433Z,5.31
2024-01-20T13:43:34.132Z,5.36
2024-01-20T13:46:01.032Z,5.41
2024-01-20T13:48:27.885Z,5.47
2024-01-20T13:50:54.741Z,5.49
2024-01-20T13:53:21.413Z,5.54
2024-01-20T13:55:48.114Z,5.56
2024-01-20T13:58:14.705Z,5.59
2024-01-20T14:00:42.544Z,5.60
2024-01-20T14:03:10.637Z,5.62
2024-01-20T14:05:37.338Z,5.61
2024-01-20T14:08:04.367Z,5.60
2024-01-20T14:10:30.995Z,5.57
2024-01-20T14:12:59.435Z,5.58
2024-01-20T14:15:26.855Z,5.57
2024-01-20T14:17:53.600Z,5.58
2024-01-20T14:20:20.301Z,5.57
2024-01-20T14:22:46.909Z,5.56
2024-01-20T14:25:15.070Z,5.56
2024-01-20T14:27:41.789Z,5.55
2024-01-20T14:30:09.091Z,5.55
2024-01-20T14:32:35.928Z,5.54
2024-01-20T14:35:02.722Z,5.53
2024-01-20T14:37:29.338Z,5.50
2024-01-20T14:39:55.917Z,5.49
2024-01-20T14:42:22.481Z,5.51
2024-01-20T14:44:49.139Z,5.50
2024-01-20T14:47:15.975Z,5.51
2024-01-20T14:49:43.061Z,5.53
2024-01-20T14:52:10.524Z,5.53
2024-01-20T14:54:38.885Z,5.53
2024-01-20T14:57:05.710Z,5.51
2024-01-20T14:59:32.318Z,5.49
2024-01-20T15:01:58.986Z,5.50
2024-01-20T15:04:25.746Z,5.48
2024-01-20T15:06:52.532Z,5.45
2024-01-20T15:09:19.315Z,5.43
2024-01-20T15:11:45.957Z,5.41
2024-01-20T15:14:13.023Z,5.39
2024-01-20T15:16:39.625Z,5.36
2024-01-20T15:19:07.084Z,5.35
2024-01-20T15:21:34.356Z,5.33
2024-01-20T15:24:01.096Z,5.31
2024-01-20T15:26:27.764Z,5.28
2024-01-20T15:28:54.458Z,5.26
2024-01-20T15:31:21.108Z,5.22
2024-01-20T15:33:47.852Z,5.19
2024-01-20T15:36:15.587Z,5.19
2024-01-20T15:38:42.322Z,5.15
2024-01-20T15:41:10.156Z,5.13
2024-01-20T15:43:36.821Z,5.08
2024-01-20T15:46:03.508Z,5.07
2024-01-20T15:48:30.972Z,5.06
2024-01-20T15:50:57.860Z,5.05
2024-01-20T15:53:24.433Z,5.03
2024-01-20T15:55:51.099Z,5.01
2024-01-20T15:58:17.722Z,4.99
2024-01-20T16:00:47.380Z,4.97
2024-01-20T16:03:14.562Z,4.92
2024-01-20T16:05:41.308Z,4.90
2024-01-20T16:08:08.104Z,4.88
2024-01-20T16:10:35.485Z,4.84
2024-01-20T16:13:02.452Z,4.82
2024-01-20T16:15:29.063Z,4.80
2024-01-20T16:17:56.305Z,4.80
2024-01-20T16:20:23.178Z,4.78
2024-01-20T16:22:49.824Z,4.76
2024-01-20T16:25:16.469Z,4.75
2024-01-20T16:27:44.036Z,4.74
2024-01-20T16:30:10.911Z,4.72
2024-01-20T16:32:37.665Z,4.69
2024-01-20T16:35:05.283Z,4.67
2024-01-20T16:37:31.997Z,4.66
2024-01-20T16:40:02.074Z,4.64
2024-01-20T16:42:29.119Z,4.61
2024-01-20T16:44:56.127Z,4.58
2024-01-20T16:47:25.446Z,4.56
2024-01-20T16:49:52.119Z,4.55
2024-01-20T16:52:18.794Z,4.53
2024-01-20T16:54:45.632Z,4.51
2024-01-20T16:57:13.416Z,4.49
2024-01-20T16:59:39.982Z,4.46
2024-01-20T17:02:07.616Z,4.43
2024-01-20T17:04:34.486Z,4.43
2024-01-20T17:07:01.376Z,4.44
2024-01-20T17:09:27.926Z,4.43
2024-01-20T17:11:55.988Z,4.43
2024-01-20T17:14:24.808Z,4.40
2024-01-20T17:16:51.605Z,4.38
2024-01-20T17:19:21.021Z,4.37
2024-01-20T17:21:50.283Z,4.34
2024-01-20T17:24:17.761Z,4.31
2024-01-20T17:26:45.305Z,4.29
2024-01-20T17:29:11.994Z,4.28
2024-01-20T17:31:39.255Z,4.27
2024-01-20T17:34:06.128Z,4.25
2024-01-20T17:36:33.502Z,4.23
2024-01-20T17:39:01.536Z,4.21
2024-01-20T17:41:29.217Z,4.18
2024-01-20T17:43:55.924Z,4.15
2024-01-20T17:46:22.600Z,4.11
2024-01-20T17:48:49.754Z,4.09
2024-01-20T17:51:16.707Z,4.07
2024-01-20T17:53:44.057Z,4.04
2024-01-20T17:56:10.762Z,4.06
2024-01-20T17:58:37.380Z,4.06
2024-01-20T18:01:06.125Z,4.04
2024-01-20T18:03:34.441Z,4.03
2024-01-20T18:06:01.379Z,4.01
2024-01-20T18:08:28.164Z,3.99
2024-01-20T18:10:55.321Z,3.96
2024-01-20T18:13:23.147Z,3.93
2024-01-20T18:15:49.937Z,3.89
2024-01-20T18:18:19.602Z,3.86
2024-01-20T18:20:46.260Z,3.85
2024-01-20T18:23:13.328Z,3.81
2024-01-20T18:25:39.886Z,3.81
2024-01-20T18:28:07.394Z,3.79
2024-01-20T18:30:35.215Z,3.78
2024-01-20T18:33:02.000Z,3.80
2024-01-20T18:35:29.167Z,3.80
2024-01-20T18:37:55.948Z,3.85
2024-01-20T18:40:22.658Z,3.84
2024-01-20T18:42:50.584Z,3.84
2024-01-20T18:45:17.788Z,3.85
2024-01-20T18:47:46.727Z,3.85
2024-01-20T18:50:19.710Z,3.85
2024-01-20T18:52:46.577Z,3.85
2024-01-20T18:55:13.447Z,3.87
2024-01-20T18:57:40.234Z,3.89
2024-01-20T19:00:07.483Z,3.89
2024-01-20T19:02:36.259Z,3.92
2024-01-20T19:05:03.089Z,3.90
2024-01-20T19:07:29.973Z,3.87
2024-01-20T19:09:56.637Z,3.84
2024-01-20T19:12:23.317Z,3.83
2024-01-20T19:14:51.829Z,3.81
2024-01-20T19:17:18.626Z,3.81
2024-01-20T19:19:45.804Z,3.79
2024-01-20T19:22:13.407Z,3.79
2024-01-20T19:24:40.188Z,3.78
2024-01-20T19:27:07.642Z,3.76
2024-01-20T19:29:35.165Z,3.76
2024-01-20T19:32:01.769Z,3.74
2024-01-20T19:34:28.635Z,3.71
2024-01-20T19:36:55.432Z,3.71
2024-01-20T19:39:22.971Z,3.70
2024-01-20T19:41:49.701Z,3.67
2024-01-20T19:44:16.395Z,3.66
2024-01-20T19:46:43.972Z,3.62
2024-01-20T19:49:11.109Z,3.62
2024-01-20T19:51:42.178Z,3.59
2024-01-20T19:54:14.780Z,3.58
2024-01-20T19:56:45.843Z,3.55
2024-01-20T19:59:17.516Z,3.54
2024-01-20T20:01:49.077Z,3.51
2024-01-20T20:04:17.202Z,3.53
2024-01-20T20:06:46.388Z,3.53
2024-01-20T20:09:17.865Z,3.53
2024-01-20T20:11:45.658Z,3.54
2024-01-20T20:14:13.231Z,3.54
2024-01-20T20:16:41.190Z,3.57
2024-01-20T20:19:08.487Z,3.57
2024-01-20T20:21:35.680Z,3.58
2024-01-20T20:24:02.438Z,3.57
2024-01-20T20:26:29.177Z,3.56
2024-01-20T20:28:55.851Z,3.54
2024-01-20T20:31:23.536Z,3.50
2024-01-20T20:33:51.419Z,3.47
2024-01-20T20:36:20.460Z,3.42
2024-01-20T20:38:47.442Z,3.37
2024-01-20T20:41:14.618Z,3.36
2024-01-20T20:43:41.329Z,3.34
2024-01-20T20:46:08.861Z,3.31
2024-01-20T20:48:35.624Z,3.29
2024-01-20T20:51:02.295Z,3.27
2024-01-20T20:53:28.982Z,3.24
2024-01-20T20:55:55.617Z,3.23
2024-01-20T20:58:22.363Z,3.22
2024-01-20T21:00:49.025Z,3.20
2024-01-20T21:03:15.948Z,3.19
2024-01-20T21:05:44.204Z,3.18
2024-01-20T21:08:10.850Z,3.18
2024-01-20T21:10:37.425Z,3.18
2024-01-20T21:13:04.518Z,3.17
2024-01-20T21:15:31.366Z,3.13
2024-01-20T21:17:58.213Z,3.13
2024-01-20T21:20:24.949Z,3.15
2024-01-20T21:22:51.646Z,3.18
2024-01-20T21:25:19.039Z,3.18
2024-01-20T21:27:46.882Z,3.19
2024-01-20T21:30:14.639Z,3.19
2024-01-20T21:32:41.831Z,3.22
2024-01-20T21:35:09.353Z,3.20
2024-01-20T21:37:36.075Z,3.18
2024-01-20T21:40:02.791Z,3.19
2024-01-20T21:42:29.437Z,3.18
2024-01-20T21:45:00.591Z,3.19
2024-01-20T21:47:30.097Z,3.23
2024-01-20T21:50:04.467Z,3.24
2024-01-20T21:52:31.217Z,3.24
2024-01-20T21:55:00.816Z,3.24
2024-01-20T21:57:27.493Z,3.25
2024-01-20T21:59:54.242Z,3.27
2024-01-20T22:02:20.933Z,3.27
2024-01-20T22:04:47.638Z,3.29
2024-01-20T22:07:14.757Z,3.33
2024-01-20T22:09:41.441Z,3.35
2024-01-20T22:12:08.152Z,3.36
2024-01-20T22:14:35.268Z,3.36
2024-01-20T22:17:02.055Z,3.35
2024-01-20T22:19:28.878Z,3.37
2024-01-20T22:21:55.588Z,3.38
2024-01-20T22:24:22.271Z,3.38
2024-01-20T22:26:49.068Z,3.36
2024-01-20T22:29:24.262Z,3.36
2024-01-20T22:31:57.560Z,3.37
2024-01-20T22:34:30.894Z,3.38
2024-01-20T22:37:00.247Z,3.40
2024-01-20T22:39:30.103Z,3.40
2024-01-20T22:41:56.786Z,3.41
2024-01-20T22:44:23.841Z,3.41
2024-01-20T22:46:51.003Z,3.43
2024-01-20T22:49:17.859Z,3.43
2024-01-20T22:51:45.667Z,3.45
2024-01-20T22:54:18.523Z,3.45
2024-01-20T22:56:45.713Z,3.47
2024-01-20T22:59:12.382Z,3.49
2024-01-20T23:01:40.659Z,3.50
2024-01-20T23:04:07.470Z,3.48
2024-01-20T23:06:34.394Z,3.49
2024-01-20T23:09:03.511Z,3.49
2024-01-20T23:11:30.745Z,3.49
2024-01-20T23:13:57.567Z,3.49
2024-01-20T23:16:24.432Z,3.49
2024-01-20T23:18:51.401Z,3.49
2024-01-20T23:21:18.062Z,3.53
2024-01-20T23:23:45.653Z,3.54
2024-01-20T23:26:15.740Z,3.59
2024-01-20T23:28:45.161Z,3.63
2024-01-20T23:31:12.204Z,3.63
2024-01-20T23:33:39.067Z,3.64
2024-01-20T23:36:07.127Z,3.65
2024-01-20T23:38:34.384Z,3.67
2024-01-20T23:41:01.084Z,3.69
2024-01-20T23:43:27.779Z,3.71
2024-01-20T23:45:54.699Z,3.71
2024-01-20T23:48:21.407Z,3.72
2024-01-20T23:50:49.019Z,3.72
2024-01-20T23:53:15.759Z,3.72
2024-01-20T23:55:43.175Z,3.72
2024-01-20T23:58:10.875Z,3.73
